sensor_id;sensor_type;location;lat;lon;timestamp;P1;durP1;ratioP1;P2;durP2;ratioP2
54919;SDS011;63804;53.120;8.764;2023-02-01T00:02:01;25.83;;;4.68;;
54919;SDS011;63804;53.120;8.764;2023-02-01T00:04:27;23.33;;;4.32;;
54919;SDS011;63804;53.120;8.764;2023-02-01T00:06:53;23.52;;;4.05;;
54919;SDS011;63804;53.120;8.764;2023-02-01T00:09:20;24.42;;;4.90;;
54919;SDS011;63804;53.120;8.764;2023-02-01T00:11:46;23.63;;;4.90;;
54919;SDS011;63804;53.120;8.764;2023-02-01T00:14:12;25.88;;;4.25;;
54919;SDS011;63804;53.120;8.764;2023-02-01T00:16:39;23.52;;;4.93;;
54919;SDS011;63804;53.120;8.764;2023-02-01T00:19:06;25.60;;;4.20;;
54919;SDS011;63804;53.120;8.764;2023-02-01T00:21:35;25.85;;;4.30;;
54919;SDS011;63804;53.120;8.764;2023-02-01T00:24:01;21.00;;;4.75;;
54919;SDS011;63804;53.120;8.764;2023-02-01T00:29:20;22.75;;;4.20;;
54919;SDS011;63804;53.120;8.764;2023-02-01T00:31:48;22.10;;;4.28;;
54919;SDS011;63804;53.120;8.764;2023-02-01T00:34:16;24.63;;;4.60;;
54919;SDS011;63804;53.120;8.764;2023-02-01T00:36:43;29.35;;;4.63;;
54919;SDS011;63804;53.120;8.764;2023-02-01T00:39:10;26.70;;;4.50;;
54919;SDS011;63804;53.120;8.764;2023-02-01T00:41:36;26.27;;;4.60;;
54919;SDS011;63804;53.120;8.764;2023-02-01T00:44:02;23.30;;;3.90;;
54919;SDS011;63804;53.120;8.764;2023-02-01T00:46:29;25.63;;;4.78;;
54919;SDS011;63804;53.120;8.764;2023-02-01T00:48:55;20.83;;;4.75;;
54919;SDS011;63804;53.120;8.764;2023-02-01T00:51:23;23.40;;;4.32;;
54919;SDS011;63804;53.120;8.764;2023-02-01T00:53:51;24.40;;;3.80;;
54919;SDS011;63804;53.120;8.764;2023-02-01T00:56:18;24.92;;;4.65;;
54919;SDS011;63804;53.120;8.764;2023-02-01T00:58:45;26.60;;;4.60;;
54919;SDS011;63804;53.120;8.764;2023-02-01T01:01:18;25.60;;;4.13;;
54919;SDS011;63804;53.120;8.764;2023-02-01T01:03:47;21.63;;;4.40;;
54919;SDS011;63804;53.120;8.764;2023-02-01T01:06:28;27.17;;;4.72;;
54919;SDS011;63804;53.120;8.764;2023-02-01T01:08:56;23.00;;;4.20;;
54919;SDS011;63804;53.120;8.764;2023-02-01T01:11:25;24.20;;;5.20;;
54919;SDS011;63804;53.120;8.764;2023-02-01T01:13:53;31.30;;;4.65;;
54919;SDS011;63804;53.120;8.764;2023-02-01T01:16:27;25.40;;;4.43;;
54919;SDS011;63804;53.120;8.764;2023-02-01T01:18:55;25.48;;;4.20;;
54919;SDS011;63804;53.120;8.764;2023-02-01T01:21:26;25.17;;;4.13;;
54919;SDS011;63804;53.120;8.764;2023-02-01T01:23:52;31.13;;;4.60;;
54919;SDS011;63804;53.120;8.764;2023-02-01T01:26:19;24.30;;;4.90;;
54919;SDS011;63804;53.120;8.764;2023-02-01T01:28:51;21.67;;;4.22;;
54919;SDS011;63804;53.120;8.764;2023-02-01T01:31:17;27.67;;;4.43;;
54919;SDS011;63804;53.120;8.764;2023-02-01T01:33:50;26.27;;;4.78;;
54919;SDS011;63804;53.120;8.764;2023-02-01T01:36:17;22.60;;;4.47;;
54919;SDS011;63804;53.120;8.764;2023-02-01T01:38:46;24.08;;;4.97;;
54919;SDS011;63804;53.120;8.764;2023-02-01T01:41:18;18.20;;;3.88;;
54919;SDS011;63804;53.120;8.764;2023-02-01T01:46:21;22.52;;;4.05;;
54919;SDS011;63804;53.120;8.764;2023-02-01T01:49:14;24.42;;;4.35;;
54919;SDS011;63804;53.120;8.764;2023-02-01T01:51:55;24.60;;;4.28;;
54919;SDS011;63804;53.120;8.764;2023-02-01T01:54:25;26.15;;;5.28;;
54919;SDS011;63804;53.120;8.764;2023-02-01T01:56:59;17.27;;;4.03;;
54919;SDS011;63804;53.120;8.764;2023-02-01T01:59:28;27.27;;;4.20;;
54919;SDS011;63804;53.120;8.764;2023-02-01T02:01:57;24.63;;;4.35;;
54919;SDS011;63804;53.120;8.764;2023-02-01T02:04:24;26.63;;;4.95;;
54919;SDS011;63804;53.120;8.764;2023-02-01T02:06:54;27.33;;;4.63;;
54919;SDS011;63804;53.120;8.764;2023-02-01T02:09:25;25.55;;;4.30;;
54919;SDS011;63804;53.120;8.764;2023-02-01T02:11:51;23.33;;;4.22;;
54919;SDS011;63804;53.120;8.764;2023-02-01T02:14:17;24.95;;;4.38;;
54919;SDS011;63804;53.120;8.764;2023-02-01T02:30:41;25.55;;;4.78;;
54919;SDS011;63804;53.120;8.764;2023-02-01T02:39:02;25.95;;;4.32;;
54919;SDS011;63804;53.120;8.764;2023-02-01T02:47:26;18.63;;;3.85;;
54919;SDS011;63804;53.120;8.764;2023-02-01T02:49:58;24.17;;;3.83;;
54919;SDS011;63804;53.120;8.764;2023-02-01T02:53:07;20.00;;;5.13;;
54919;SDS011;63804;53.120;8.764;2023-02-01T02:55:57;20.58;;;3.90;;
54919;SDS011;63804;53.120;8.764;2023-02-01T02:58:43;22.27;;;4.40;;
54919;SDS011;63804;53.120;8.764;2023-02-01T03:01:30;20.95;;;3.80;;
54919;SDS011;63804;53.120;8.764;2023-02-01T03:04:16;22.10;;;4.00;;
54919;SDS011;63804;53.120;8.764;2023-02-01T03:06:43;17.42;;;3.58;;
54919;SDS011;63804;53.120;8.764;2023-02-01T03:09:16;27.55;;;4.50;;
54919;SDS011;63804;53.120;8.764;2023-02-01T03:11:48;21.27;;;3.58;;
54919;SDS011;63804;53.120;8.764;2023-02-01T03:14:39;23.70;;;4.25;;
54919;SDS011;63804;53.120;8.764;2023-02-01T03:17:13;21.98;;;3.80;;
54919;SDS011;63804;53.120;8.764;2023-02-01T03:19:43;20.88;;;4.10;;
54919;SDS011;63804;53.120;8.764;2023-02-01T03:22:15;21.30;;;4.35;;
54919;SDS011;63804;53.120;8.764;2023-02-01T03:24:46;18.13;;;3.60;;
54919;SDS011;63804;53.120;8.764;2023-02-01T03:27:24;22.48;;;4.07;;
54919;SDS011;63804;53.120;8.764;2023-02-01T03:32:31;23.60;;;4.07;;
54919;SDS011;63804;53.120;8.764;2023-02-01T03:35:18;18.85;;;3.75;;
54919;SDS011;63804;53.120;8.764;2023-02-01T03:37:52;24.77;;;4.32;;
54919;SDS011;63804;53.120;8.764;2023-02-01T03:40:21;18.88;;;3.95;;
54919;SDS011;63804;53.120;8.764;2023-02-01T03:42:49;21.30;;;3.83;;
54919;SDS011;63804;53.120;8.764;2023-02-01T03:45:24;19.30;;;3.95;;
54919;SDS011;63804;53.120;8.764;2023-02-01T03:47:56;20.05;;;3.58;;
54919;SDS011;63804;53.120;8.764;2023-02-01T03:50:25;18.92;;;3.92;;
54919;SDS011;63804;53.120;8.764;2023-02-01T03:55:28;15.77;;;3.55;;
54919;SDS011;63804;53.120;8.764;2023-02-01T03:58:06;20.05;;;3.58;;
54919;SDS011;63804;53.120;8.764;2023-02-01T04:00:38;15.65;;;3.67;;
54919;SDS011;63804;53.120;8.764;2023-02-01T04:03:05;21.50;;;3.75;;
54919;SDS011;63804;53.120;8.764;2023-02-01T04:05:32;15.07;;;2.83;;
54919;SDS011;63804;53.120;8.764;2023-02-01T04:07:58;21.27;;;3.35;;
54919;SDS011;63804;53.120;8.764;2023-02-01T04:10:25;16.45;;;3.08;;
54919;SDS011;63804;53.120;8.764;2023-02-01T04:12:51;14.25;;;2.97;;
54919;SDS011;63804;53.120;8.764;2023-02-01T04:15:17;14.75;;;2.75;;
54919;SDS011;63804;53.120;8.764;2023-02-01T04:17:44;15.23;;;3.08;;
54919;SDS011;63804;53.120;8.764;2023-02-01T04:20:10;13.38;;;3.25;;
54919;SDS011;63804;53.120;8.764;2023-02-01T04:22:36;15.27;;;3.22;;
54919;SDS011;63804;53.120;8.764;2023-02-01T04:25:02;17.33;;;3.10;;
54919;SDS011;63804;53.120;8.764;2023-02-01T04:27:31;19.52;;;3.70;;
54919;SDS011;63804;53.120;8.764;2023-02-01T04:29:57;21.83;;;4.30;;
54919;SDS011;63804;53.120;8.764;2023-02-01T04:32:23;15.90;;;3.65;;
54919;SDS011;63804;53.120;8.764;2023-02-01T04:34:48;19.80;;;3.83;;
54919;SDS011;63804;53.120;8.764;2023-02-01T04:37:14;23.00;;;4.00;;
54919;SDS011;63804;53.120;8.764;2023-02-01T04:39:40;19.50;;;4.03;;
54919;SDS011;63804;53.120;8.764;2023-02-01T04:42:06;17.40;;;3.28;;
54919;SDS011;63804;53.120;8.764;2023-02-01T04:44:32;19.83;;;4.35;;
54919;SDS011;63804;53.120;8.764;2023-02-01T04:46:57;18.80;;;3.88;;
54919;SDS011;63804;53.120;8.764;2023-02-01T04:49:24;22.42;;;4.13;;
54919;SDS011;63804;53.120;8.764;2023-02-01T04:51:51;22.30;;;4.00;;
54919;SDS011;63804;53.120;8.764;2023-02-01T04:54:17;24.17;;;4.20;;
54919;SDS011;63804;53.120;8.764;2023-02-01T04:56:50;22.92;;;3.90;;
54919;SDS011;63804;53.120;8.764;2023-02-01T04:59:16;24.27;;;4.03;;
54919;SDS011;63804;53.120;8.764;2023-02-01T05:01:42;19.65;;;3.72;;
54919;SDS011;63804;53.120;8.764;2023-02-01T05:04:08;20.98;;;4.00;;
54919;SDS011;63804;53.120;8.764;2023-02-01T05:06:34;17.88;;;3.58;;
54919;SDS011;63804;53.120;8.764;2023-02-01T05:09:00;17.85;;;3.35;;
54919;SDS011;63804;53.120;8.764;2023-02-01T05:11:26;18.55;;;3.70;;
54919;SDS011;63804;53.120;8.764;2023-02-01T05:16:43;17.33;;;4.07;;
54919;SDS011;63804;53.120;8.764;2023-02-01T05:19:09;17.23;;;3.63;;
54919;SDS011;63804;53.120;8.764;2023-02-01T05:21:34;20.65;;;3.88;;
54919;SDS011;63804;53.120;8.764;2023-02-01T05:24:00;18.15;;;3.60;;
54919;SDS011;63804;53.120;8.764;2023-02-01T05:26:35;19.80;;;3.67;;
54919;SDS011;63804;53.120;8.764;2023-02-01T05:29:02;17.30;;;3.50;;
54919;SDS011;63804;53.120;8.764;2023-02-01T05:31:29;19.50;;;3.17;;
54919;SDS011;63804;53.120;8.764;2023-02-01T05:33:54;14.40;;;2.90;;
54919;SDS011;63804;53.120;8.764;2023-02-01T05:36:21;17.83;;;3.38;;
54919;SDS011;63804;53.120;8.764;2023-02-01T05:38:47;18.27;;;3.50;;
54919;SDS011;63804;53.120;8.764;2023-02-01T05:41:12;15.90;;;3.25;;
54919;SDS011;63804;53.120;8.764;2023-02-01T05:43:38;17.35;;;3.50;;
54919;SDS011;63804;53.120;8.764;2023-02-01T05:46:04;18.60;;;3.00;;
54919;SDS011;63804;53.120;8.764;2023-02-01T05:48:30;12.90;;;2.95;;
54919;SDS011;63804;53.120;8.764;2023-02-01T05:50:56;16.65;;;3.75;;
54919;SDS011;63804;53.120;8.764;2023-02-01T05:53:22;17.50;;;3.63;;
54919;SDS011;63804;53.120;8.764;2023-02-01T05:55:48;18.30;;;2.72;;
54919;SDS011;63804;53.120;8.764;2023-02-01T05:58:14;13.90;;;3.00;;
54919;SDS011;63804;53.120;8.764;2023-02-01T06:00:39;12.20;;;2.85;;
54919;SDS011;63804;53.120;8.764;2023-02-01T06:03:05;15.95;;;3.55;;
54919;SDS011;63804;53.120;8.764;2023-02-01T06:05:32;16.25;;;3.83;;
54919;SDS011;63804;53.120;8.764;2023-02-01T06:07:57;16.08;;;2.90;;
54919;SDS011;63804;53.120;8.764;2023-02-01T06:10:23;16.35;;;3.05;;
54919;SDS011;63804;53.120;8.764;2023-02-01T06:12:49;16.15;;;3.00;;
54919;SDS011;63804;53.120;8.764;2023-02-01T06:15:15;20.40;;;3.53;;
54919;SDS011;63804;53.120;8.764;2023-02-01T06:17:42;13.75;;;3.25;;
54919;SDS011;63804;53.120;8.764;2023-02-01T06:20:09;18.35;;;3.88;;
54919;SDS011;63804;53.120;8.764;2023-02-01T06:22:36;17.00;;;3.33;;
54919;SDS011;63804;53.120;8.764;2023-02-01T06:25:03;17.15;;;3.55;;
54919;SDS011;63804;53.120;8.764;2023-02-01T06:27:29;17.27;;;3.50;;
54919;SDS011;63804;53.120;8.764;2023-02-01T06:29:56;16.02;;;3.85;;
54919;SDS011;63804;53.120;8.764;2023-02-01T06:32:22;13.23;;;3.70;;
54919;SDS011;63804;53.120;8.764;2023-02-01T06:34:48;16.80;;;3.95;;
54919;SDS011;63804;53.120;8.764;2023-02-01T06:37:14;16.58;;;3.85;;
54919;SDS011;63804;53.120;8.764;2023-02-01T06:39:40;16.85;;;4.00;;
54919;SDS011;63804;53.120;8.764;2023-02-01T06:42:05;18.98;;;4.03;;
54919;SDS011;63804;53.120;8.764;2023-02-01T06:44:31;18.73;;;4.43;;
54919;SDS011;63804;53.120;8.764;2023-02-01T06:46:57;18.95;;;4.32;;
54919;SDS011;63804;53.120;8.764;2023-02-01T06:49:23;20.30;;;4.63;;
54919;SDS011;63804;53.120;8.764;2023-02-01T06:51:49;21.67;;;4.32;;
54919;SDS011;63804;53.120;8.764;2023-02-01T06:54:15;18.48;;;4.18;;
54919;SDS011;63804;53.120;8.764;2023-02-01T06:56:40;20.02;;;3.92;;
54919;SDS011;63804;53.120;8.764;2023-02-01T06:59:07;21.58;;;4.22;;
54919;SDS011;63804;53.120;8.764;2023-02-01T07:01:33;16.85;;;4.28;;
54919;SDS011;63804;53.120;8.764;2023-02-01T07:03:59;17.98;;;4.00;;
54919;SDS011;63804;53.120;8.764;2023-02-01T07:06:25;17.95;;;3.92;;
54919;SDS011;63804;53.120;8.764;2023-02-01T07:08:51;26.38;;;4.90;;
54919;SDS011;63804;53.120;8.764;2023-02-01T07:11:18;21.35;;;5.20;;
54919;SDS011;63804;53.120;8.764;2023-02-01T07:13:44;21.00;;;4.40;;
54919;SDS011;63804;53.120;8.764;2023-02-01T07:16:14;18.35;;;4.50;;
54919;SDS011;63804;53.120;8.764;2023-02-01T07:18:42;16.40;;;4.07;;
54919;SDS011;63804;53.120;8.764;2023-02-01T07:21:08;19.23;;;4.22;;
54919;SDS011;63804;53.120;8.764;2023-02-01T07:23:34;24.13;;;5.30;;
54919;SDS011;63804;53.120;8.764;2023-02-01T07:26:01;23.58;;;5.93;;
54919;SDS011;63804;53.120;8.764;2023-02-01T07:28:30;34.30;;;9.57;;
54919;SDS011;63804;53.120;8.764;2023-02-01T07:31:02;42.10;;;11.55;;
54919;SDS011;63804;53.120;8.764;2023-02-01T07:33:39;31.00;;;9.38;;
54919;SDS011;63804;53.120;8.764;2023-02-01T07:36:05;31.80;;;8.05;;
54919;SDS011;63804;53.120;8.764;2023-02-01T07:38:32;26.95;;;6.47;;
54919;SDS011;63804;53.120;8.764;2023-02-01T07:40:59;39.10;;;11.15;;
54919;SDS011;63804;53.120;8.764;2023-02-01T07:43:26;34.15;;;9.15;;
54919;SDS011;63804;53.120;8.764;2023-02-01T07:45:53;28.80;;;6.50;;
54919;SDS011;63804;53.120;8.764;2023-02-01T07:48:20;29.45;;;5.85;;
54919;SDS011;63804;53.120;8.764;2023-02-01T07:50:46;34.28;;;7.28;;
54919;SDS011;63804;53.120;8.764;2023-02-01T07:53:13;26.90;;;5.47;;
54919;SDS011;63804;53.120;8.764;2023-02-01T07:55:39;23.45;;;4.93;;
54919;SDS011;63804;53.120;8.764;2023-02-01T07:58:05;19.88;;;3.75;;
54919;SDS011;63804;53.120;8.764;2023-02-01T08:00:30;21.05;;;4.13;;
54919;SDS011;63804;53.120;8.764;2023-02-01T08:05:40;23.00;;;3.58;;
54919;SDS011;63804;53.120;8.764;2023-02-01T08:08:06;15.90;;;3.47;;
54919;SDS011;63804;53.120;8.764;2023-02-01T08:10:32;24.00;;;4.60;;
54919;SDS011;63804;53.120;8.764;2023-02-01T08:13:00;21.55;;;4.15;;
54919;SDS011;63804;53.120;8.764;2023-02-01T08:15:27;25.75;;;4.95;;
54919;SDS011;63804;53.120;8.764;2023-02-01T08:17:53;22.75;;;6.80;;
54919;SDS011;63804;53.120;8.764;2023-02-01T08:20:20;19.00;;;4.28;;
54919;SDS011;63804;53.120;8.764;2023-02-01T08:22:49;22.80;;;3.78;;
54919;SDS011;63804;53.120;8.764;2023-02-01T08:25:15;18.73;;;3.65;;
54919;SDS011;63804;53.120;8.764;2023-02-01T08:27:42;27.98;;;10.00;;
54919;SDS011;63804;53.120;8.764;2023-02-01T08:30:08;19.75;;;4.55;;
54919;SDS011;63804;53.120;8.764;2023-02-01T08:32:34;28.05;;;7.25;;
54919;SDS011;63804;53.120;8.764;2023-02-01T08:35:01;23.35;;;6.85;;
54919;SDS011;63804;53.120;8.764;2023-02-01T08:37:27;24.08;;;7.50;;
54919;SDS011;63804;53.120;8.764;2023-02-01T08:39:53;24.75;;;7.03;;
54919;SDS011;63804;53.120;8.764;2023-02-01T08:42:18;26.38;;;6.13;;
54919;SDS011;63804;53.120;8.764;2023-02-01T08:47:29;22.83;;;4.47;;
54919;SDS011;63804;53.120;8.764;2023-02-01T08:49:55;18.85;;;3.50;;
54919;SDS011;63804;53.120;8.764;2023-02-01T08:52:21;24.08;;;4.25;;
54919;SDS011;63804;53.120;8.764;2023-02-01T08:54:47;21.95;;;3.55;;
54919;SDS011;63804;53.120;8.764;2023-02-01T08:57:13;17.17;;;4.13;;
54919;SDS011;63804;53.120;8.764;2023-02-01T08:59:39;16.52;;;3.15;;
54919;SDS011;63804;53.120;8.764;2023-02-01T09:02:05;21.42;;;3.65;;
54919;SDS011;63804;53.120;8.764;2023-02-01T09:04:31;15.57;;;3.13;;
54919;SDS011;63804;53.120;8.764;2023-02-01T09:06:56;19.08;;;3.83;;
54919;SDS011;63804;53.120;8.764;2023-02-01T09:09:22;20.13;;;4.13;;
54919;SDS011;63804;53.120;8.764;2023-02-01T09:11:49;17.83;;;3.55;;
54919;SDS011;63804;53.120;8.764;2023-02-01T09:14:18;19.02;;;3.35;;
54919;SDS011;63804;53.120;8.764;2023-02-01T09:16:44;26.35;;;4.90;;
54919;SDS011;63804;53.120;8.764;2023-02-01T09:19:09;21.08;;;3.78;;
54919;SDS011;63804;53.120;8.764;2023-02-01T09:21:35;20.33;;;3.38;;
54919;SDS011;63804;53.120;8.764;2023-02-01T09:24:01;21.85;;;3.65;;
54919;SDS011;63804;53.120;8.764;2023-02-01T09:26:27;24.92;;;4.28;;
54919;SDS011;63804;53.120;8.764;2023-02-01T09:28:53;17.02;;;3.25;;
54919;SDS011;63804;53.120;8.764;2023-02-01T09:31:19;17.70;;;3.70;;
54919;SDS011;63804;53.120;8.764;2023-02-01T09:33:45;17.33;;;3.15;;
54919;SDS011;63804;53.120;8.764;2023-02-01T09:36:11;22.58;;;3.95;;
54919;SDS011;63804;53.120;8.764;2023-02-01T09:38:37;23.02;;;3.88;;
54919;SDS011;63804;53.120;8.764;2023-02-01T09:41:07;18.75;;;3.40;;
54919;SDS011;63804;53.120;8.764;2023-02-01T09:44:01;18.88;;;3.20;;
54919;SDS011;63804;53.120;8.764;2023-02-01T09:46:30;16.50;;;3.80;;
54919;SDS011;63804;53.120;8.764;2023-02-01T09:49:00;21.60;;;3.75;;
54919;SDS011;63804;53.120;8.764;2023-02-01T09:51:38;17.50;;;3.25;;
54919;SDS011;63804;53.120;8.764;2023-02-01T09:54:11;22.40;;;3.70;;
54919;SDS011;63804;53.120;8.764;2023-02-01T09:56:46;19.13;;;3.58;;
54919;SDS011;63804;53.120;8.764;2023-02-01T10:02:11;17.42;;;3.15;;
54919;SDS011;63804;53.120;8.764;2023-02-01T10:04:40;19.15;;;3.65;;
54919;SDS011;63804;53.120;8.764;2023-02-01T10:07:12;20.58;;;3.85;;
54919;SDS011;63804;53.120;8.764;2023-02-01T10:12:39;20.77;;;3.83;;
54919;SDS011;63804;53.120;8.764;2023-02-01T10:15:41;21.40;;;3.47;;
54919;SDS011;63804;53.120;8.764;2023-02-01T10:21:24;17.25;;;3.75;;
54919;SDS011;63804;53.120;8.764;2023-02-01T10:27:01;20.13;;;3.92;;
54919;SDS011;63804;53.120;8.764;2023-02-01T10:29:42;22.90;;;3.92;;
54919;SDS011;63804;53.120;8.764;2023-02-01T10:32:15;20.13;;;3.17;;
54919;SDS011;63804;53.120;8.764;2023-02-01T10:34:44;20.90;;;3.72;;
54919;SDS011;63804;53.120;8.764;2023-02-01T10:37:26;19.35;;;3.35;;
54919;SDS011;63804;53.120;8.764;2023-02-01T10:39:55;20.13;;;3.08;;
54919;SDS011;63804;53.120;8.764;2023-02-01T10:42:26;18.90;;;3.13;;
54919;SDS011;63804;53.120;8.764;2023-02-01T10:44:57;22.02;;;4.10;;
54919;SDS011;63804;53.120;8.764;2023-02-01T10:47:27;22.13;;;3.20;;
54919;SDS011;63804;53.120;8.764;2023-02-01T10:50:55;19.08;;;3.25;;
54919;SDS011;63804;53.120;8.764;2023-02-01T10:58:01;16.83;;;3.20;;
54919;SDS011;63804;53.120;8.764;2023-02-01T11:03:36;15.63;;;3.67;;
54919;SDS011;63804;53.120;8.764;2023-02-01T11:08:54;19.30;;;3.90;;
54919;SDS011;63804;53.120;8.764;2023-02-01T11:11:22;17.27;;;3.30;;
54919;SDS011;63804;53.120;8.764;2023-02-01T11:13:53;19.98;;;3.40;;
54919;SDS011;63804;53.120;8.764;2023-02-01T11:16:33;18.30;;;4.00;;
54919;SDS011;63804;53.120;8.764;2023-02-01T11:19:01;16.35;;;3.17;;
54919;SDS011;63804;53.120;8.764;2023-02-01T11:21:28;15.00;;;2.60;;
54919;SDS011;63804;53.120;8.764;2023-02-01T11:23:54;17.90;;;3.15;;
54919;SDS011;63804;53.120;8.764;2023-02-01T11:26:22;11.32;;;2.75;;
54919;SDS011;63804;53.120;8.764;2023-02-01T11:28:53;16.20;;;2.88;;
54919;SDS011;63804;53.120;8.764;2023-02-01T11:31:43;18.13;;;3.15;;
54919;SDS011;63804;53.120;8.764;2023-02-01T11:34:17;15.27;;;3.03;;
54919;SDS011;63804;53.120;8.764;2023-02-01T11:36:46;17.00;;;2.67;;
54919;SDS011;63804;53.120;8.764;2023-02-01T11:41:54;11.57;;;2.53;;
54919;SDS011;63804;53.120;8.764;2023-02-01T11:44:36;8.57;;;2.20;;
54919;SDS011;63804;53.120;8.764;2023-02-01T11:47:17;9.98;;;2.25;;
54919;SDS011;63804;53.120;8.764;2023-02-01T11:49:44;11.82;;;2.00;;
54919;SDS011;63804;53.120;8.764;2023-02-01T12:05:55;8.75;;;2.13;;
54919;SDS011;63804;53.120;8.764;2023-02-01T12:13:38;8.90;;;1.70;;
54919;SDS011;63804;53.120;8.764;2023-02-01T12:21:26;3.80;;;0.80;;
54919;SDS011;63804;53.120;8.764;2023-02-01T12:26:53;1.77;;;0.57;;
54919;SDS011;63804;53.120;8.764;2023-02-01T12:29:26;1.27;;;0.32;;
54919;SDS011;63804;53.120;8.764;2023-02-01T12:40:19;3.55;;;0.50;;
54919;SDS011;63804;53.120;8.764;2023-02-01T12:43:14;1.75;;;0.50;;
54919;SDS011;63804;53.120;8.764;2023-02-01T12:46:01;2.75;;;0.60;;
54919;SDS011;63804;53.120;8.764;2023-02-01T12:48:31;1.60;;;0.60;;
54919;SDS011;63804;53.120;8.764;2023-02-01T12:51:04;2.75;;;0.60;;
54919;SDS011;63804;53.120;8.764;2023-02-01T12:56:43;4.78;;;1.17;;
54919;SDS011;63804;53.120;8.764;2023-02-01T12:59:36;6.22;;;2.63;;
54919;SDS011;63804;53.120;8.764;2023-02-01T13:04:41;9.77;;;3.17;;
54919;SDS011;63804;53.120;8.764;2023-02-01T13:07:18;5.40;;;2.35;;
54919;SDS011;63804;53.120;8.764;2023-02-01T13:09:57;5.07;;;1.90;;
54919;SDS011;63804;53.120;8.764;2023-02-01T13:15:33;3.50;;;1.13;;
54919;SDS011;63804;53.120;8.764;2023-02-01T13:18:04;3.10;;;0.80;;
54919;SDS011;63804;53.120;8.764;2023-02-01T13:23:02;5.47;;;0.63;;
54919;SDS011;63804;53.120;8.764;2023-02-01T13:28:12;3.83;;;0.73;;
54919;SDS011;63804;53.120;8.764;2023-02-01T13:31:10;4.53;;;1.00;;
54919;SDS011;63804;53.120;8.764;2023-02-01T13:33:44;9.82;;;1.90;;
54919;SDS011;63804;53.120;8.764;2023-02-01T13:37:09;6.05;;;1.60;;
54919;SDS011;63804;53.120;8.764;2023-02-01T13:39:54;9.15;;;1.67;;
54919;SDS011;63804;53.120;8.764;2023-02-01T13:42:28;8.70;;;2.00;;
54919;SDS011;63804;53.120;8.764;2023-02-01T13:45:04;7.25;;;1.70;;
54919;SDS011;63804;53.120;8.764;2023-02-01T13:47:40;11.18;;;2.33;;
54919;SDS011;63804;53.120;8.764;2023-02-01T13:50:20;14.35;;;2.60;;
54919;SDS011;63804;53.120;8.764;2023-02-01T13:52:55;11.68;;;2.03;;
54919;SDS011;63804;53.120;8.764;2023-02-01T13:55:37;12.30;;;2.15;;
54919;SDS011;63804;53.120;8.764;2023-02-01T14:00:38;11.80;;;3.40;;
54919;SDS011;63804;53.120;8.764;2023-02-01T14:13:29;16.02;;;3.58;;
54919;SDS011;63804;53.120;8.764;2023-02-01T14:26:46;11.13;;;2.22;;
54919;SDS011;63804;53.120;8.764;2023-02-01T14:31:42;14.70;;;2.28;;
54919;SDS011;63804;53.120;8.764;2023-02-01T14:34:26;14.98;;;2.40;;
54919;SDS011;63804;53.120;8.764;2023-02-01T14:58:06;19.38;;;3.85;;
54919;SDS011;63804;53.120;8.764;2023-02-01T15:00:51;22.00;;;4.03;;
54919;SDS011;63804;53.120;8.764;2023-02-01T15:09:02;24.83;;;4.03;;
54919;SDS011;63804;53.120;8.764;2023-02-01T15:11:29;24.42;;;4.28;;
54919;SDS011;63804;53.120;8.764;2023-02-01T15:13:55;21.30;;;4.40;;
54919;SDS011;63804;53.120;8.764;2023-02-01T15:16:23;19.85;;;3.80;;
54919;SDS011;63804;53.120;8.764;2023-02-01T15:19:10;25.48;;;4.57;;
54919;SDS011;63804;53.120;8.764;2023-02-01T15:21:47;20.85;;;4.55;;
54919;SDS011;63804;53.120;8.764;2023-02-01T15:24:25;26.02;;;4.65;;
54919;SDS011;63804;53.120;8.764;2023-02-01T15:26:53;17.50;;;4.03;;
54919;SDS011;63804;53.120;8.764;2023-02-01T15:29:21;22.00;;;3.75;;
54919;SDS011;63804;53.120;8.764;2023-02-01T15:31:52;17.13;;;3.92;;
54919;SDS011;63804;53.120;8.764;2023-02-01T15:34:19;21.40;;;4.22;;
54919;SDS011;63804;53.120;8.764;2023-02-01T15:36:45;26.95;;;4.40;;
54919;SDS011;63804;53.120;8.764;2023-02-01T15:39:19;24.52;;;4.60;;
54919;SDS011;63804;53.120;8.764;2023-02-01T15:46:46;25.08;;;4.43;;
54919;SDS011;63804;53.120;8.764;2023-02-01T15:49:25;17.50;;;3.67;;
54919;SDS011;63804;53.120;8.764;2023-02-01T15:51:51;23.60;;;4.63;;
54919;SDS011;63804;53.120;8.764;2023-02-01T15:54:19;28.58;;;4.32;;
54919;SDS011;63804;53.120;8.764;2023-02-01T15:56:50;21.50;;;3.67;;
54919;SDS011;63804;53.120;8.764;2023-02-01T15:59:19;24.10;;;5.13;;
54919;SDS011;63804;53.120;8.764;2023-02-01T16:01:47;21.63;;;5.10;;
54919;SDS011;63804;53.120;8.764;2023-02-01T16:04:23;21.05;;;4.05;;
54919;SDS011;63804;53.120;8.764;2023-02-01T16:06:59;23.60;;;4.35;;
54919;SDS011;63804;53.120;8.764;2023-02-01T16:09:36;13.32;;;2.92;;
54919;SDS011;63804;53.120;8.764;2023-02-01T16:15:10;10.25;;;2.00;;
54919;SDS011;63804;53.120;8.764;2023-02-01T16:17:36;5.10;;;1.40;;
54919;SDS011;63804;53.120;8.764;2023-02-01T16:20:01;9.35;;;2.17;;
54919;SDS011;63804;53.120;8.764;2023-02-01T16:22:27;7.47;;;2.35;;
54919;SDS011;63804;53.120;8.764;2023-02-01T16:24:53;9.07;;;1.60;;
54919;SDS011;63804;53.120;8.764;2023-02-01T16:27:19;13.50;;;2.30;;
54919;SDS011;63804;53.120;8.764;2023-02-01T16:29:46;8.10;;;1.70;;
54919;SDS011;63804;53.120;8.764;2023-02-01T16:32:21;10.10;;;2.40;;
54919;SDS011;63804;53.120;8.764;2023-02-01T16:34:47;8.43;;;1.65;;
54919;SDS011;63804;53.120;8.764;2023-02-01T16:37:15;8.07;;;2.05;;
54919;SDS011;63804;53.120;8.764;2023-02-01T16:39:45;11.52;;;1.75;;
54919;SDS011;63804;53.120;8.764;2023-02-01T16:42:14;12.18;;;1.88;;
54919;SDS011;63804;53.120;8.764;2023-02-01T16:44:47;16.30;;;2.45;;
54919;SDS011;63804;53.120;8.764;2023-02-01T16:47:15;11.52;;;3.10;;
54919;SDS011;63804;53.120;8.764;2023-02-01T16:49:43;13.02;;;3.53;;
54919;SDS011;63804;53.120;8.764;2023-02-01T16:52:17;17.95;;;4.22;;
54919;SDS011;63804;53.120;8.764;2023-02-01T16:54:45;19.38;;;4.50;;
54919;SDS011;63804;53.120;8.764;2023-02-01T16:57:13;16.55;;;5.25;;
54919;SDS011;63804;53.120;8.764;2023-02-01T16:59:40;20.55;;;5.25;;
54919;SDS011;63804;53.120;8.764;2023-02-01T17:02:14;21.77;;;4.47;;
54919;SDS011;63804;53.120;8.764;2023-02-01T17:04:44;21.05;;;4.63;;
54919;SDS011;63804;53.120;8.764;2023-02-01T17:07:14;17.88;;;4.03;;
54919;SDS011;63804;53.120;8.764;2023-02-01T17:09:41;19.88;;;4.50;;
54919;SDS011;63804;53.120;8.764;2023-02-01T17:12:18;18.88;;;3.88;;
54919;SDS011;63804;53.120;8.764;2023-02-01T17:14:48;16.83;;;3.38;;
54919;SDS011;63804;53.120;8.764;2023-02-01T17:17:15;15.60;;;3.72;;
54919;SDS011;63804;53.120;8.764;2023-02-01T17:19:42;16.92;;;3.50;;
54919;SDS011;63804;53.120;8.764;2023-02-01T17:22:11;17.33;;;3.60;;
54919;SDS011;63804;53.120;8.764;2023-02-01T17:24:39;21.65;;;4.63;;
54919;SDS011;63804;53.120;8.764;2023-02-01T17:27:04;11.15;;;2.25;;
54919;SDS011;63804;53.120;8.764;2023-02-01T17:29:30;14.77;;;2.13;;
54919;SDS011;63804;53.120;8.764;2023-02-01T17:31:56;13.60;;;2.85;;
54919;SDS011;63804;53.120;8.764;2023-02-01T17:34:24;16.88;;;2.65;;
54919;SDS011;63804;53.120;8.764;2023-02-01T17:36:51;13.60;;;2.85;;
54919;SDS011;63804;53.120;8.764;2023-02-01T17:39:17;13.63;;;2.72;;
54919;SDS011;63804;53.120;8.764;2023-02-01T17:42:03;18.77;;;4.43;;
54919;SDS011;63804;53.120;8.764;2023-02-01T17:44:30;21.10;;;5.00;;
54919;SDS011;63804;53.120;8.764;2023-02-01T17:46:56;24.08;;;5.97;;
54919;SDS011;63804;53.120;8.764;2023-02-01T17:49:24;23.70;;;5.88;;
54919;SDS011;63804;53.120;8.764;2023-02-01T17:51:51;23.42;;;5.07;;
54919;SDS011;63804;53.120;8.764;2023-02-01T17:54:16;27.95;;;5.60;;